sensor_id;sensor_type;location;lat;lon;timestamp;temperature;humidity
3488;DHT22;38546;48.170;11.724;2024-02-21T00:00:26;4.60;99.90
3488;DHT22;38546;48.170;11.724;2024-02-21T00:02:56;4.60;99.90
3488;DHT22;38546;48.170;11.724;2024-02-21T00:05:29;4.70;99.90
3488;DHT22;38546;48.170;11.724;2024-02-21T00:08:00;4.70;99.90
3488;DHT22;38546;48.170;11.724;2024-02-21T00:10:33;4.70;99.90
3488;DHT22;38546;48.170;11.724;2024-02-21T00:13:05;4.80;99.90
3488;DHT22;38546;48.170;11.724;2024-02-21T00:15:36;4.80;99.90
3488;DHT22;38546;48.170;11.724;2024-02-21T00:18:07;4.80;99.90
3488;DHT22;38546;48.170;11.724;2024-02-21T00:20:38;4.80;99.90
3488;DHT22;38546;48.170;11.724;2024-02-21T00:23:08;4.80;99.90
3488;DHT22;38546;48.170;11.724;2024-02-21T00:25:39;4.80;99.90
3488;DHT22;38546;48.170;11.724;2024-02-21T00:28:10;4.80;99.90
3488;DHT22;38546;48.170;11.724;2024-02-21T00:30:40;4.80;99.90
3488;DHT22;38546;48.170;11.724;2024-02-21T00:33:11;4.80;99.90
3488;DHT22;38546;48.170;11.724;2024-02-21T00:35:42;4.80;99.90
3488;DHT22;38546;48.170;11.724;2024-02-21T00:38:13;4.80;99.90
3488;DHT22;38546;48.170;11.724;2024-02-21T00:40:43;4.80;99.90
3488;DHT22;38546;48.170;11.724;2024-02-21T00:43:14;4.90;99.90
3488;DHT22;38546;48.170;11.724;2024-02-21T00:45:45;4.90;99.90
3488;DHT22;38546;48.170;11.724;2024-02-21T00:48:16;4.80;99.90
3488;DHT22;38546;48.170;11.724;2024-02-21T00:50:46;4.90;99.90
3488;DHT22;38546;48.170;11.724;2024-02-21T00:53:17;4.90;99.90
3488;DHT22;38546;48.170;11.724;2024-02-21T00:55:48;4.90;99.90
3488;DHT22;38546;48.170;11.724;2024-02-21T00:58:18;4.90;99.90
3488;DHT22;38546;48.170;11.724;2024-02-21T01:00:49;4.90;99.90
3488;DHT22;38546;48.170;11.724;2024-02-21T01:03:20;4.90;99.90
3488;DHT22;38546;48.170;11.724;2024-02-21T01:05:50;4.90;99.90
3488;DHT22;38546;48.170;11.724;2024-02-21T01:08:21;4.90;99.90
3488;DHT22;38546;48.170;11.724;2024-02-21T01:10:52;4.90;99.90
3488;DHT22;38546;48.170;11.724;2024-02-21T01:13:22;4.90;99.90
3488;DHT22;38546;48.170;11.724;2024-02-21T01:15:53;4.90;99.90
3488;DHT22;38546;48.170;11.724;2024-02-21T01:18:24;4.90;99.90
3488;DHT22;38546;48.170;11.724;2024-02-21T01:20:55;4.90;99.90
3488;DHT22;38546;48.170;11.724;2024-02-21T01:23:25;4.90;99.90
3488;DHT22;38546;48.170;11.724;2024-02-21T01:25:56;4.90;99.90
3488;DHT22;38546;48.170;11.724;2024-02-21T01:28:27;4.90;99.90
3488;DHT22;38546;48.170;11.724;2024-02-21T01:30:57;4.90;99.90
3488;DHT22;38546;48.170;11.724;2024-02-21T01:33:28;4.90;99.90
3488;DHT22;38546;48.170;11.724;2024-02-21T01:36:02;4.90;99.90
3488;DHT22;38546;48.170;11.724;2024-02-21T01:38:34;4.90;99.90
3488;DHT22;38546;48.170;11.724;2024-02-21T01:41:04;4.90;99.90
3488;DHT22;38546;48.170;11.724;2024-02-21T01:43:35;4.90;99.90
3488;DHT22;38546;48.170;11.724;2024-02-21T01:46:07;4.90;99.90
3488;DHT22;38546;48.170;11.724;2024-02-21T01:48:38;4.90;99.90
3488;DHT22;38546;48.170;11.724;2024-02-21T01:51:09;4.90;99.90
3488;DHT22;38546;48.170;11.724;2024-02-21T01:53:43;4.90;99.90
3488;DHT22;38546;48.170;11.724;2024-02-21T01:56:14;4.90;99.90
3488;DHT22;38546;48.170;11.724;2024-02-21T01:58:45;4.90;99.90
3488;DHT22;38546;48.170;11.724;2024-02-21T02:01:17;4.90;99.90
3488;DHT22;38546;48.170;11.724;2024-02-21T02:03:48;4.90;99.90
3488;DHT22;38546;48.170;11.724;2024-02-21T02:06:19;4.90;99.90
3488;DHT22;38546;48.170;11.724;2024-02-21T02:08:51;4.90;99.90
3488;DHT22;38546;48.170;11.724;2024-02-21T02:11:21;4.90;99.90
3488;DHT22;38546;48.170;11.724;2024-02-21T02:13:52;5.00;99.90
3488;DHT22;38546;48.170;11.724;2024-02-21T02:16:23;5.00;99.90
3488;DHT22;38546;48.170;11.724;2024-02-21T02:18:54;5.00;99.90
3488;DHT22;38546;48.170;11.724;2024-02-21T02:21:30;5.00;99.90
3488;DHT22;38546;48.170;11.724;2024-02-21T02:24:06;5.00;99.90
3488;DHT22;38546;48.170;11.724;2024-02-21T02:26:37;5.10;99.90
3488;DHT22;38546;48.170;11.724;2024-02-21T02:29:07;5.10;99.90
3488;DHT22;38546;48.170;11.724;2024-02-21T02:31:38;5.10;99.90
3488;DHT22;38546;48.170;11.724;2024-02-21T02:34:09;5.10;99.90
3488;DHT22;38546;48.170;11.724;2024-02-21T02:36:40;5.10;99.90
3488;DHT22;38546;48.170;11.724;2024-02-21T02:39:10;5.10;99.90
3488;DHT22;38546;48.170;11.724;2024-02-21T02:41:41;5.10;99.90
3488;DHT22;38546;48.170;11.724;2024-02-21T02:44:11;5.10;99.90
3488;DHT22;38546;48.170;11.724;2024-02-21T02:46:42;5.10;99.90
3488;DHT22;38546;48.170;11.724;2024-02-21T02:49:13;5.10;99.90
3488;DHT22;38546;48.170;11.724;2024-02-21T02:51:44;5.10;99.90
3488;DHT22;38546;48.170;11.724;2024-02-21T02:54:14;5.10;99.90
3488;DHT22;38546;48.170;11.724;2024-02-21T02:56:45;5.20;99.90
3488;DHT22;38546;48.170;11.724;2024-02-21T02:59:16;5.20;99.90
3488;DHT22;38546;48.170;11.724;2024-02-21T03:01:46;5.20;99.90
3488;DHT22;38546;48.170;11.724;2024-02-21T03:04:17;5.20;99.90
3488;DHT22;38546;48.170;11.724;2024-02-21T03:06:48;5.20;99.90
3488;DHT22;38546;48.170;11.724;2024-02-21T03:09:19;5.20;99.90
3488;DHT22;38546;48.170;11.724;2024-02-21T03:11:49;5.20;99.90
3488;DHT22;38546;48.170;11.724;2024-02-21T03:14:20;5.20;99.90
3488;DHT22;38546;48.170;11.724;2024-02-21T03:16:51;5.20;99.90
3488;DHT22;38546;48.170;11.724;2024-02-21T03:19:22;5.20;99.90
3488;DHT22;38546;48.170;11.724;2024-02-21T03:21:53;5.20;99.90
3488;DHT22;38546;48.170;11.724;2024-02-21T03:24:23;5.20;99.90
3488;DHT22;38546;48.170;11.724;2024-02-21T03:26:54;5.20;99.90
3488;DHT22;38546;48.170;11.724;2024-02-21T03:29:25;5.20;99.90
3488;DHT22;38546;48.170;11.724;2024-02-21T03:31:56;5.20;99.90
3488;DHT22;38546;48.170;11.724;2024-02-21T03:34:26;5.20;99.90
3488;DHT22;38546;48.170;11.724;2024-02-21T03:36:57;5.20;99.90
3488;DHT22;38546;48.170;11.724;2024-02-21T03:39:31;5.20;99.90
3488;DHT22;38546;48.170;11.724;2024-02-21T03:42:03;5.30;99.90
3488;DHT22;38546;48.170;11.724;2024-02-21T03:44:35;5.20;99.90
3488;DHT22;38546;48.170;11.724;2024-02-21T03:47:06;5.20;99.90
3488;DHT22;38546;48.170;11.724;2024-02-21T03:49:40;5.20;99.90
3488;DHT22;38546;48.170;11.724;2024-02-21T03:52:11;5.20;99.90
3488;DHT22;38546;48.170;11.724;2024-02-21T03:54:41;5.20;99.90
3488;DHT22;38546;48.170;11.724;2024-02-21T03:57:12;5.20;99.90
3488;DHT22;38546;48.170;11.724;2024-02-21T03:59:43;5.20;99.90
3488;DHT22;38546;48.170;11.724;2024-02-21T04:02:13;5.20;99.90
3488;DHT22;38546;48.170;11.724;2024-02-21T04:04:45;5.20;99.90
3488;DHT22;38546;48.170;11.724;2024-02-21T04:07:18;5.20;99.90
3488;DHT22;38546;48.170;11.724;2024-02-21T04:09:49;5.20;99.90
3488;DHT22;38546;48.170;11.724;2024-02-21T04:12:20;5.20;99.90
3488;DHT22;38546;48.170;11.724;2024-02-21T04:14:51;5.20;99.90
3488;DHT22;38546;48.170;11.724;2024-02-21T04:17:22;5.20;99.90
3488;DHT22;38546;48.170;11.724;2024-02-21T04:20:04;5.20;99.90
3488;DHT22;38546;48.170;11.724;2024-02-21T04:22:35;5.20;99.90
3488;DHT22;38546;48.170;11.724;2024-02-21T04:25:07;5.20;99.90
3488;DHT22;38546;48.170;11.724;2024-02-21T04:27:38;5.20;99.90
3488;DHT22;38546;48.170;11.724;2024-02-21T04:30:10;5.20;99.90
3488;DHT22;38546;48.170;11.724;2024-02-21T04:32:41;5.20;99.90
3488;DHT22;38546;48.170;11.724;2024-02-21T04:35:11;5.20;99.90
3488;DHT22;38546;48.170;11.724;2024-02-21T04:37:42;5.20;99.90
3488;DHT22;38546;48.170;11.724;2024-02-21T04:40:13;5.20;99.90
3488;DHT22;38546;48.170;11.724;2024-02-21T04:42:44;5.10;99.90
3488;DHT22;38546;48.170;11.724;2024-02-21T04:45:15;5.10;99.90
3488;DHT22;38546;48.170;11.724;2024-02-21T04:47:45;5.10;99.90
3488;DHT22;38546;48.170;11.724;2024-02-21T04:50:16;5.10;99.90
3488;DHT22;38546;48.170;11.724;2024-02-21T04:52:47;5.10;99.90
3488;DHT22;38546;48.170;11.724;2024-02-21T04:55:18;5.10;99.90
3488;DHT22;38546;48.170;11.724;2024-02-21T04:57:48;5.10;99.90
3488;DHT22;38546;48.170;11.724;2024-02-21T05:00:19;5.00;99.90
3488;DHT22;38546;48.170;11.724;2024-02-21T05:02:50;5.00;99.90
3488;DHT22;38546;48.170;11.724;2024-02-21T05:05:21;5.00;99.90
3488;DHT22;38546;48.170;11.724;2024-02-21T05:07:51;4.90;99.90
3488;DHT22;38546;48.170;11.724;2024-02-21T05:10:22;4.90;99.90
3488;DHT22;38546;48.170;11.724;2024-02-21T05:12:53;4.80;99.90
3488;DHT22;38546;48.170;11.724;2024-02-21T05:15:25;4.80;99.90
3488;DHT22;38546;48.170;11.724;2024-02-21T05:17:55;4.80;99.90
3488;DHT22;38546;48.170;11.724;2024-02-21T05:20:26;4.70;99.90
3488;DHT22;38546;48.170;11.724;2024-02-21T05:22:56;4.70;99.90
3488;DHT22;38546;48.170;11.724;2024-02-21T05:25:27;4.60;99.90
3488;DHT22;38546;48.170;11.724;2024-02-21T05:27:58;4.60;99.90
3488;DHT22;38546;48.170;11.724;2024-02-21T05:30:32;4.50;99.90
3488;DHT22;38546;48.170;11.724;2024-02-21T05:33:06;4.50;99.90
3488;DHT22;38546;48.170;11.724;2024-02-21T05:35:37;4.50;99.90
3488;DHT22;38546;48.170;11.724;2024-02-21T05:38:08;4.40;99.90
3488;DHT22;38546;48.170;11.724;2024-02-21T05:40:42;4.40;99.90
3488;DHT22;38546;48.170;11.724;2024-02-21T05:43:13;4.40;99.90
3488;DHT22;38546;48.170;11.724;2024-02-21T05:45:44;4.30;99.90
3488;DHT22;38546;48.170;11.724;2024-02-21T05:48:14;4.30;99.90
3488;DHT22;38546;48.170;11.724;2024-02-21T05:50:45;4.40;99.90
3488;DHT22;38546;48.170;11.724;2024-02-21T05:53:16;4.40;99.90
3488;DHT22;38546;48.170;11.724;2024-02-21T05:55:46;4.40;99.90
3488;DHT22;38546;48.170;11.724;2024-02-21T05:58:17;4.40;99.90
3488;DHT22;38546;48.170;11.724;2024-02-21T06:00:48;4.40;99.90
3488;DHT22;38546;48.170;11.724;2024-02-21T06:03:18;4.50;99.90
3488;DHT22;38546;48.170;11.724;2024-02-21T06:05:49;4.50;99.90
3488;DHT22;38546;48.170;11.724;2024-02-21T06:08:20;4.50;99.90
3488;DHT22;38546;48.170;11.724;2024-02-21T06:10:50;4.50;99.90
3488;DHT22;38546;48.170;11.724;2024-02-21T06:13:24;4.50;99.90
3488;DHT22;38546;48.170;11.724;2024-02-21T06:15:55;4.40;99.90
3488;DHT22;38546;48.170;11.724;2024-02-21T06:18:26;4.40;99.90
3488;DHT22;38546;48.170;11.724;2024-02-21T06:20:56;4.40;99.90
3488;DHT22;38546;48.170;11.724;2024-02-21T06:23:27;4.40;99.90
3488;DHT22;38546;48.170;11.724;2024-02-21T06:25:58;4.40;99.90
3488;DHT22;38546;48.170;11.724;2024-02-21T06:28:28;4.30;99.90
3488;DHT22;38546;48.170;11.724;2024-02-21T06:30:59;4.30;99.90
3488;DHT22;38546;48.170;11.724;2024-02-21T06:33:30;4.30;99.90
3488;DHT22;38546;48.170;11.724;2024-02-21T06:36:00;4.30;99.90
3488;DHT22;38546;48.170;11.724;2024-02-21T06:38:31;4.40;99.90
3488;DHT22;38546;48.170;11.724;2024-02-21T06:41:02;4.40;99.90
3488;DHT22;38546;48.170;11.724;2024-02-21T06:43:33;4.40;99.90
3488;DHT22;38546;48.170;11.724;2024-02-21T06:46:03;4.50;99.90
3488;DHT22;38546;48.170;11.724;2024-02-21T06:48:34;4.50;99.90
3488;DHT22;38546;48.170;11.724;2024-02-21T06:51:05;4.60;99.90
3488;DHT22;38546;48.170;11.724;2024-02-21T06:53:35;4.70;99.90
3488;DHT22;38546;48.170;11.724;2024-02-21T06:56:06;4.80;99.90
3488;DHT22;38546;48.170;11.724;2024-02-21T06:58:37;4.90;99.90
3488;DHT22;38546;48.170;11.724;2024-02-21T07:01:09;5.00;99.90
3488;DHT22;38546;48.170;11.724;2024-02-21T07:03:40;5.10;99.90
3488;DHT22;38546;48.170;11.724;2024-02-21T07:06:11;5.20;99.90
3488;DHT22;38546;48.170;11.724;2024-02-21T07:08:42;5.30;99.90
3488;DHT22;38546;48.170;11.724;2024-02-21T07:11:13;5.30;99.90
3488;DHT22;38546;48.170;11.724;2024-02-21T07:13:43;5.30;99.90
3488;DHT22;38546;48.170;11.724;2024-02-21T07:16:14;5.30;99.90
3488;DHT22;38546;48.170;11.724;2024-02-21T07:18:45;5.30;99.90
3488;DHT22;38546;48.170;11.724;2024-02-21T07:21:15;5.20;99.90
3488;DHT22;38546;48.170;11.724;2024-02-21T07:23:46;5.20;99.90
3488;DHT22;38546;48.170;11.724;2024-02-21T07:26:17;5.10;99.90
3488;DHT22;38546;48.170;11.724;2024-02-21T07:28:47;5.20;99.90
3488;DHT22;38546;48.170;11.724;2024-02-21T07:31:18;5.30;99.90
3488;DHT22;38546;48.170;11.724;2024-02-21T07:33:48;5.40;99.90
3488;DHT22;38546;48.170;11.724;2024-02-21T07:36:29;5.50;99.90
3488;DHT22;38546;48.170;11.724;2024-02-21T07:39:03;5.50;99.90
3488;DHT22;38546;48.170;11.724;2024-02-21T07:41:35;5.50;99.90
3488;DHT22;38546;48.170;11.724;2024-02-21T07:44:05;5.60;99.90
3488;DHT22;38546;48.170;11.724;2024-02-21T07:46:36;5.50;99.90
3488;DHT22;38546;48.170;11.724;2024-02-21T07:49:06;5.50;99.90
3488;DHT22;38546;48.170;11.724;2024-02-21T07:51:37;5.50;99.90
3488;DHT22;38546;48.170;11.724;2024-02-21T07:54:08;5.50;99.90
3488;DHT22;38546;48.170;11.724;2024-02-21T07:56:38;5.40;99.90
3488;DHT22;38546;48.170;11.724;2024-02-21T07:59:09;5.40;99.90
3488;DHT22;38546;48.170;11.724;2024-02-21T08:01:40;5.50;99.90
3488;DHT22;38546;48.170;11.724;2024-02-21T08:04:11;5.50;99.90
3488;DHT22;38546;48.170;11.724;2024-02-21T08:06:41;5.70;99.90
3488;DHT22;38546;48.170;11.724;2024-02-21T08:09:12;5.90;99.90
3488;DHT22;38546;48.170;11.724;2024-02-21T08:11:43;6.10;99.90
3488;DHT22;38546;48.170;11.724;2024-02-21T08:14:14;6.30;99.90
3488;DHT22;38546;48.170;11.724;2024-02-21T08:16:46;6.40;99.90
3488;DHT22;38546;48.170;11.724;2024-02-21T08:19:17;6.60;99.90
3488;DHT22;38546;48.170;11.724;2024-02-21T08:21:48;6.70;99.90
3488;DHT22;38546;48.170;11.724;2024-02-21T08:24:19;6.80;99.90
3488;DHT22;38546;48.170;11.724;2024-02-21T08:26:50;7.00;99.90
3488;DHT22;38546;48.170;11.724;2024-02-21T08:29:20;7.10;99.90
3488;DHT22;38546;48.170;11.724;2024-02-21T08:31:53;7.30;99.90
3488;DHT22;38546;48.170;11.724;2024-02-21T08:34:24;7.40;99.90
3488;DHT22;38546;48.170;11.724;2024-02-21T08:36:55;7.50;99.90
3488;DHT22;38546;48.170;11.724;2024-02-21T08:39:25;7.70;99.90
3488;DHT22;38546;48.170;11.724;2024-02-21T08:41:58;7.90;99.90
3488;DHT22;38546;48.170;11.724;2024-02-21T08:44:30;8.00;99.90
3488;DHT22;38546;48.170;11.724;2024-02-21T08:47:00;8.10;99.90
3488;DHT22;38546;48.170;11.724;2024-02-21T08:49:34;8.20;99.90
3488;DHT22;38546;48.170;11.724;2024-02-21T08:52:05;8.40;99.90
3488;DHT22;38546;48.170;11.724;2024-02-21T08:54:35;8.50;99.90
3488;DHT22;38546;48.170;11.724;2024-02-21T08:57:06;8.60;99.90
3488;DHT22;38546;48.170;11.724;2024-02-21T08:59:37;8.70;99.90
3488;DHT22;38546;48.170;11.724;2024-02-21T09:02:07;8.80;99.90
3488;DHT22;38546;48.170;11.724;2024-02-21T09:04:39;8.90;99.90
3488;DHT22;38546;48.170;11.724;2024-02-21T09:07:10;9.00;99.90
3488;DHT22;38546;48.170;11.724;2024-02-21T09:09:41;9.00;99.90
3488;DHT22;38546;48.170;11.724;2024-02-21T09:12:12;9.10;99.90
3488;DHT22;38546;48.170;11.724;2024-02-21T09:14:42;9.10;99.90
3488;DHT22;38546;48.170;11.724;2024-02-21T09:17:13;9.30;99.90
3488;DHT22;38546;48.170;11.724;2024-02-21T09:19:45;9.30;99.90
3488;DHT22;38546;48.170;11.724;2024-02-21T09:22:15;9.50;99.90
3488;DHT22;38546;48.170;11.724;2024-02-21T09:24:46;9.50;99.90
3488;DHT22;38546;48.170;11.724;2024-02-21T09:27:18;9.60;99.90
3488;DHT22;38546;48.170;11.724;2024-02-21T09:29:48;9.70;99.90
3488;DHT22;38546;48.170;11.724;2024-02-21T09:32:19;9.80;99.90
3488;DHT22;38546;48.170;11.724;2024-02-21T09:34:49;9.90;99.90
3488;DHT22;38546;48.170;11.724;2024-02-21T09:37:20;10.00;99.90
3488;DHT22;38546;48.170;11.724;2024-02-21T09:39:51;10.10;99.90
3488;DHT22;38546;48.170;11.724;2024-02-21T09:42:26;10.30;99.90
3488;DHT22;38546;48.170;11.724;2024-02-21T09:48:42;10.50;99.90
3488;DHT22;38546;48.170;11.724;2024-02-21T09:51:54;10.50;99.90
3488;DHT22;38546;48.170;11.724;2024-02-21T09:54:28;10.60;99.90
3488;DHT22;38546;48.170;11.724;2024-02-21T09:57:01;10.70;99.90
3488;DHT22;38546;48.170;11.724;2024-02-21T09:59:33;11.00;99.90
3488;DHT22;38546;48.170;11.724;2024-02-21T10:02:04;11.10;99.90
3488;DHT22;38546;48.170;11.724;2024-02-21T10:04:35;11.30;99.90
3488;DHT22;38546;48.170;11.724;2024-02-21T10:07:06;11.40;99.90
3488;DHT22;38546;48.170;11.724;2024-02-21T10:09:37;11.40;99.90
3488;DHT22;38546;48.170;11.724;2024-02-21T10:12:09;11.70;99.90
3488;DHT22;38546;48.170;11.724;2024-02-21T10:14:41;11.60;99.90
3488;DHT22;38546;48.170;11.724;2024-02-21T10:17:17;11.60;99.90
3488;DHT22;38546;48.170;11.724;2024-02-21T10:19:50;11.60;99.90
3488;DHT22;38546;48.170;11.724;2024-02-21T10:22:22;11.60;99.90
3488;DHT22;38546;48.170;11.724;2024-02-21T10:24:55;11.60;99.90
3488;DHT22;38546;48.170;11.724;2024-02-21T10:27:38;11.50;99.90
3488;DHT22;38546;48.170;11.724;2024-02-21T10:30:13;11.60;99.90
3488;DHT22;38546;48.170;11.724;2024-02-21T10:32:52;11.50;99.90
3488;DHT22;38546;48.170;11.724;2024-02-21T10:35:32;11.60;99.90
3488;DHT22;38546;48.170;11.724;2024-02-21T10:38:04;11.60;99.90
3488;DHT22;38546;48.170;11.724;2024-02-21T10:40:35;11.60;99.90
3488;DHT22;38546;48.170;11.724;2024-02-21T10:43:06;11.60;99.90
3488;DHT22;38546;48.170;11.724;2024-02-21T10:45:43;11.70;99.90
3488;DHT22;38546;48.170;11.724;2024-02-21T10:48:26;11.80;99.90
3488;DHT22;38546;48.170;11.724;2024-02-21T10:51:19;11.70;99.90
3488;DHT22;38546;48.170;11.724;2024-02-21T10:54:12;11.80;99.90
3488;DHT22;38546;48.170;11.724;2024-02-21T10:56:56;11.80;99.90
3488;DHT22;38546;48.170;11.724;2024-02-21T10:59:27;11.60;99.90
3488;DHT22;38546;48.170;11.724;2024-02-21T11:02:00;11.60;99.90
3488;DHT22;38546;48.170;11.724;2024-02-21T11:04:32;11.60;99.90
3488;DHT22;38546;48.170;11.724;2024-02-21T11:07:07;11.70;99.90
3488;DHT22;38546;48.170;11.724;2024-02-21T11:09:38;11.70;99.90
3488;DHT22;38546;48.170;11.724;2024-02-21T11:12:09;11.70;99.90
3488;DHT22;38546;48.170;11.724;2024-02-21T11:14:40;11.70;99.90
3488;DHT22;38546;48.170;11.724;2024-02-21T11:17:19;11.70;99.90
3488;DHT22;38546;48.170;11.724;2024-02-21T11:19:51;11.70;99.90
3488;DHT22;38546;48.170;11.724;2024-02-21T11:22:22;11.70;99.90
3488;DHT22;38546;48.170;11.724;2024-02-21T11:24:55;12.00;99.90
3488;DHT22;38546;48.170;11.724;2024-02-21T11:27:26;12.00;99.90
3488;DHT22;38546;48.170;11.724;2024-02-21T11:29:57;11.90;99.90
3488;DHT22;38546;48.170;11.724;2024-02-21T11:32:31;11.90;99.90
3488;DHT22;38546;48.170;11.724;2024-02-21T11:35:03;11.90;99.90
3488;DHT22;38546;48.170;11.724;2024-02-21T11:37:36;11.90;99.90
3488;DHT22;38546;48.170;11.724;2024-02-21T11:40:10;12.00;99.90
3488;DHT22;38546;48.170;11.724;2024-02-21T11:42:41;11.90;99.90
3488;DHT22;38546;48.170;11.724;2024-02-21T11:45:15;12.00;99.90
3488;DHT22;38546;48.170;11.724;2024-02-21T11:47:46;12.20;99.90
3488;DHT22;38546;48.170;11.724;2024-02-21T11:50:17;12.30;99.90
3488;DHT22;38546;48.170;11.724;2024-02-21T11:52:48;12.40;99.90
3488;DHT22;38546;48.170;11.724;2024-02-21T11:55:19;12.40;99.90
3488;DHT22;38546;48.170;11.724;2024-02-21T11:57:49;12.30;99.90
3488;DHT22;38546;48.170;11.724;2024-02-21T12:00:21;12.30;99.90
3488;DHT22;38546;48.170;11.724;2024-02-21T12:02:54;12.40;99.90
3488;DHT22;38546;48.170;11.724;2024-02-21T12:05:26;12.50;99.90
3488;DHT22;38546;48.170;11.724;2024-02-21T12:07:59;12.50;98.80
3488;DHT22;38546;48.170;11.724;2024-02-21T12:10:30;12.60;98.90
3488;DHT22;38546;48.170;11.724;2024-02-21T12:13:11;12.60;98.40
3488;DHT22;38546;48.170;11.724;2024-02-21T12:15:47;12.70;98.50
3488;DHT22;38546;48.170;11.724;2024-02-21T12:18:19;12.70;99.60
3488;DHT22;38546;48.170;11.724;2024-02-21T12:20:50;12.70;99.30
3488;DHT22;38546;48.170;11.724;2024-02-21T12:23:21;12.70;99.30
3488;DHT22;38546;48.170;11.724;2024-02-21T12:25:52;12.80;98.70
3488;DHT22;38546;48.170;11.724;2024-02-21T12:28:24;12.70;98.70
3488;DHT22;38546;48.170;11.724;2024-02-21T12:30:55;12.60;98.70
3488;DHT22;38546;48.170;11.724;2024-02-21T12:33:26;12.60;98.00
3488;DHT22;38546;48.170;11.724;2024-02-21T12:35:56;12.60;98.80
3488;DHT22;38546;48.170;11.724;2024-02-21T12:38:27;12.60;98.50
3488;DHT22;38546;48.170;11.724;2024-02-21T12:40:58;12.60;98.40
3488;DHT22;38546;48.170;11.724;2024-02-21T12:43:30;12.60;98.80
3488;DHT22;38546;48.170;11.724;2024-02-21T12:46:02;12.70;98.10
3488;DHT22;38546;48.170;11.724;2024-02-21T12:48:33;12.60;98.30
3488;DHT22;38546;48.170;11.724;2024-02-21T12:51:04;12.60;97.40
3488;DHT22;38546;48.170;11.724;2024-02-21T12:53:35;12.50;97.30
3488;DHT22;38546;48.170;11.724;2024-02-21T12:56:06;12.50;97.90
3488;DHT22;38546;48.170;11.724;2024-02-21T12:58:38;12.50;97.30
3488;DHT22;38546;48.170;11.724;2024-02-21T13:01:09;12.40;97.40
3488;DHT22;38546;48.170;11.724;2024-02-21T13:03:39;12.50;97.00
3488;DHT22;38546;48.170;11.724;2024-02-21T13:06:10;12.60;96.80
3488;DHT22;38546;48.170;11.724;2024-02-21T13:08:41;12.80;95.30
3488;DHT22;38546;48.170;11.724;2024-02-21T13:11:12;12.90;95.70
3488;DHT22;38546;48.170;11.724;2024-02-21T13:13:43;12.80;97.20
3488;DHT22;38546;48.170;11.724;2024-02-21T13:16:14;12.80;96.30
3488;DHT22;38546;48.170;11.724;2024-02-21T13:18:44;12.80;97.50
3488;DHT22;38546;48.170;11.724;2024-02-21T13:21:17;12.80;97.30
3488;DHT22;38546;48.170;11.724;2024-02-21T13:23:49;12.80;96.40
3488;DHT22;38546;48.170;11.724;2024-02-21T13:26:20;12.90;95.80
3488;DHT22;38546;48.170;11.724;2024-02-21T13:28:50;12.80;96.30
3488;DHT22;38546;48.170;11.724;2024-02-21T13:31:21;12.80;96.00
3488;DHT22;38546;48.170;11.724;2024-02-21T13:33:52;12.70;95.70
3488;DHT22;38546;48.170;11.724;2024-02-21T13:36:23;12.70;96.20
3488;DHT22;38546;48.170;11.724;2024-02-21T13:38:54;12.80;95.20
3488;DHT22;38546;48.170;11.724;2024-02-21T13:41:25;12.80;95.60
3488;DHT22;38546;48.170;11.724;2024-02-21T13:43:55;12.80;95.50
3488;DHT22;38546;48.170;11.724;2024-02-21T13:46:26;12.80;95.30
3488;DHT22;38546;48.170;11.724;2024-02-21T13:49:03;12.80;94.80
3488;DHT22;38546;48.170;11.724;2024-02-21T13:51:36;12.90;94.10
3488;DHT22;38546;48.170;11.724;2024-02-21T13:54:07;12.90;95.00
3488;DHT22;38546;48.170;11.724;2024-02-21T13:56:39;12.80;94.30
3488;DHT22;38546;48.170;11.724;2024-02-21T13:59:11;12.90;94.00
3488;DHT22;38546;48.170;11.724;2024-02-21T14:01:43;13.00;94.00
3488;DHT22;38546;48.170;11.724;2024-02-21T14:04:14;13.00;94.60
3488;DHT22;38546;48.170;11.724;2024-02-21T14:06:45;12.90;94.80
3488;DHT22;38546;48.170;11.724;2024-02-21T14:09:15;12.80;94.10
3488;DHT22;38546;48.170;11.724;2024-02-21T14:11:46;12.80;94.40
3488;DHT22;38546;48.170;11.724;2024-02-21T14:14:17;12.80;95.40
3488;DHT22;38546;48.170;11.724;2024-02-21T14:16:48;12.80;94.20
3488;DHT22;38546;48.170;11.724;2024-02-21T14:19:18;12.80;93.90
3488;DHT22;38546;48.170;11.724;2024-02-21T14:21:49;12.80;94.30
3488;DHT22;38546;48.170;11.724;2024-02-21T14:24:20;12.80;95.00
3488;DHT22;38546;48.170;11.724;2024-02-21T14:26:50;12.80;94.40
3488;DHT22;38546;48.170;11.724;2024-02-21T14:29:21;12.80;94.90
3488;DHT22;38546;48.170;11.724;2024-02-21T14:31:52;12.80;94.50
3488;DHT22;38546;48.170;11.724;2024-02-21T14:34:23;12.80;94.40
3488;DHT22;38546;48.170;11.724;2024-02-21T14:36:54;12.80;94.40
3488;DHT22;38546;48.170;11.724;2024-02-21T14:39:24;12.70;93.80
3488;DHT22;38546;48.170;11.724;2024-02-21T14:41:55;12.70;94.00
3488;DHT22;38546;48.170;11.724;2024-02-21T14:44:26;12.70;94.40
3488;DHT22;38546;48.170;11.724;2024-02-21T14:46:57;12.70;94.50
3488;DHT22;38546;48.170;11.724;2024-02-21T14:49:28;12.70;94.80
3488;DHT22;38546;48.170;11.724;2024-02-21T14:51:59;12.70;93.70
3488;DHT22;38546;48.170;11.724;2024-02-21T14:54:29;12.70;93.50
3488;DHT22;38546;48.170;11.724;2024-02-21T14:57:00;12.80;94.00
3488;DHT22;38546;48.170;11.724;2024-02-21T14:59:35;12.80;94.20
3488;DHT22;38546;48.170;11.724;2024-02-21T15:02:06;12.80;94.70
3488;DHT22;38546;48.170;11.724;2024-02-21T15:04:38;12.80;94.10
3488;DHT22;38546;48.170;11.724;2024-02-21T15:07:09;12.90;93.60
3488;DHT22;38546;48.170;11.724;2024-02-21T15:09:40;12.80;94.30
3488;DHT22;38546;48.170;11.724;2024-02-21T15:12:10;12.80;93.80
3488;DHT22;38546;48.170;11.724;2024-02-21T15:14:41;12.70;93.80
3488;DHT22;38546;48.170;11.724;2024-02-21T15:17:13;12.70;93.70
3488;DHT22;38546;48.170;11.724;2024-02-21T15:19:44;12.70;95.30
3488;DHT22;38546;48.170;11.724;2024-02-21T15:22:15;12.70;95.60
3488;DHT22;38546;48.170;11.724;2024-02-21T15:24:46;12.70;95.00
3488;DHT22;38546;48.170;11.724;2024-02-21T15:27:19;12.60;93.20
3488;DHT22;38546;48.170;11.724;2024-02-21T15:29:49;12.60;94.10
3488;DHT22;38546;48.170;11.724;2024-02-21T15:32:20;12.60;94.70
3488;DHT22;38546;48.170;11.724;2024-02-21T15:34:51;12.50;94.30
3488;DHT22;38546;48.170;11.724;2024-02-21T15:37:21;12.50;94.30
3488;DHT22;38546;48.170;11.724;2024-02-21T15:39:52;12.50;94.20
3488;DHT22;38546;48.170;11.724;2024-02-21T15:42:22;12.50;95.60
3488;DHT22;38546;48.170;11.724;2024-02-21T15:44:53;12.40;95.80
3488;DHT22;38546;48.170;11.724;2024-02-21T15:47:24;12.40;95.30
3488;DHT22;38546;48.170;11.724;2024-02-21T15:49:54;12.30;96.10
3488;DHT22;38546;48.170;11.724;2024-02-21T15:52:25;12.20;97.30
3488;DHT22;38546;48.170;11.724;2024-02-21T15:54:57;12.20;97.20
3488;DHT22;38546;48.170;11.724;2024-02-21T15:57:28;12.10;97.10
3488;DHT22;38546;48.170;11.724;2024-02-21T15:59:58;12.00;96.70
3488;DHT22;38546;48.170;11.724;2024-02-21T16:02:29;12.00;97.30
3488;DHT22;38546;48.170;11.724;2024-02-21T16:05:00;11.90;96.60
3488;DHT22;38546;48.170;11.724;2024-02-21T16:07:31;11.80;97.10
3488;DHT22;38546;48.170;11.724;2024-02-21T16:10:01;11.70;98.80